createdAt,value
2023-04-26T00:01:19.563Z,7.60
2023-04-26T00:03:46.954Z,8.83
2023-04-26T00:06:14.203Z,13.57
2023-04-26T00:08:41.494Z,9.87
2023-04-26T00:11:10.051Z,16.23
2023-04-26T00:13:37.169Z,6.93
2023-04-26T00:16:04.453Z,9.60
2023-04-26T00:18:31.638Z,6.87
2023-04-26T00:20:58.818Z,8.13
2023-04-26T00:23:25.929Z,6.43
2023-04-26T00:25:53.013Z,10.80
2023-04-26T00:28:21.407Z,11.90
2023-04-26T00:30:48.499Z,9.37
2023-04-26T00:33:15.736Z,8.57
2023-04-26T00:35:42.911Z,6.57
2023-04-26T00:38:10.304Z,6.00
2023-04-26T00:40:37.473Z,9.30
2023-04-26T00:43:04.554Z,9.90
2023-04-26T00:45:33.052Z,11.43
2023-04-26T00:48:00.548Z,11.67
2023-04-26T00:50:28.021Z,12.27
2023-04-26T00:52:55.816Z,8.33
2023-04-26T00:55:23.244Z,7.73
2023-04-26T00:57:50.370Z,5.77
2023-04-26T01:00:17.662Z,8.67
2023-04-26T01:02:46.950Z,10.03
2023-04-26T01:05:14.150Z,14.20
2023-04-26T01:07:41.236Z,7.87
2023-04-26T01:10:08.621Z,8.97
2023-04-26T01:12:36.126Z,9.40
2023-04-26T01:15:05.587Z,9.60
2023-04-26T01:17:32.766Z,11.20
2023-04-26T01:20:01.350Z,7.93
2023-04-26T01:22:28.821Z,12.13
2023-04-26T01:24:58.614Z,6.23
2023-04-26T01:27:25.853Z,9.97
2023-04-26T01:29:52.941Z,10.03
2023-04-26T01:32:20.056Z,11.63
2023-04-26T01:34:47.215Z,7.73
2023-04-26T01:37:14.400Z,8.87
2023-04-26T01:39:41.519Z,14.40
2023-04-26T01:42:10.098Z,13.60
2023-04-26T01:44:37.248Z,11.30
2023-04-26T01:47:04.380Z,11.27
2023-04-26T01:49:31.510Z,12.43
2023-04-26T01:51:59.389Z,11.97
2023-04-26T01:54:26.592Z,8.60
2023-04-26T01:56:53.821Z,12.00
2023-04-26T01:59:22.397Z,11.27
2023-04-26T02:01:49.555Z,10.90
2023-04-26T02:04:16.596Z,7.97
2023-04-26T02:06:43.682Z,12.00
2023-04-26T02:09:10.750Z,7.37
2023-04-26T02:11:40.571Z,12.93
2023-04-26T02:14:07.573Z,13.43
2023-04-26T02:16:36.086Z,7.47
2023-04-26T02:19:03.241Z,11.40
2023-04-26T02:21:30.358Z,9.60
2023-04-26T02:23:57.460Z,10.37
2023-04-26T02:26:24.530Z,7.60
2023-04-26T02:28:51.814Z,9.70
2023-04-26T02:31:20.546Z,13.27
2023-04-26T02:33:50.376Z,12.80
2023-04-26T02:36:17.454Z,13.00
2023-04-26T02:38:44.477Z,14.87
2023-04-26T02:41:11.568Z,6.33
2023-04-26T02:43:39.165Z,6.13
2023-04-26T02:46:07.579Z,9.00
2023-04-26T02:48:34.635Z,13.77
2023-04-26T02:51:03.219Z,11.23
2023-04-26T02:53:30.349Z,7.30
2023-04-26T02:55:57.488Z,8.47
2023-04-26T02:58:24.573Z,20.63
2023-04-26T03:00:51.693Z,11.43
2023-04-26T03:03:19.121Z,6.70
2023-04-26T03:05:46.331Z,12.10
2023-04-26T03:08:14.961Z,9.57
2023-04-26T03:10:42.095Z,11.80
2023-04-26T03:13:09.259Z,7.40
2023-04-26T03:15:36.369Z,7.33
2023-04-26T03:18:03.512Z,11.50
2023-04-26T03:20:30.738Z,6.87
2023-04-26T03:22:57.971Z,9.30
2023-04-26T03:25:26.446Z,11.40
2023-04-26T03:27:53.777Z,10.20
2023-04-26T03:30:20.926Z,11.50
2023-04-26T03:32:48.050Z,10.63
2023-04-26T03:35:15.334Z,8.63
2023-04-26T03:37:42.454Z,12.80
2023-04-26T03:40:12.935Z,14.00
2023-04-26T03:42:41.516Z,9.23
2023-04-26T03:45:09.153Z,8.50
2023-04-26T03:47:36.310Z,7.80
2023-04-26T03:50:03.415Z,7.90
2023-04-26T03:52:30.771Z,16.53
2023-04-26T03:54:57.878Z,7.73
2023-04-26T03:57:24.966Z,17.03
2023-04-26T03:59:53.451Z,15.83
2023-04-26T04:02:21.275Z,6.50
2023-04-26T04:04:48.549Z,14.70
2023-04-26T04:07:15.743Z,11.87
2023-04-26T04:09:42.903Z,9.03
2023-04-26T04:12:09.995Z,9.33
2023-04-26T04:14:37.173Z,10.40
2023-04-26T04:17:05.805Z,9.70
2023-04-26T04:19:32.913Z,19.30
2023-04-26T04:22:00.172Z,9.37
2023-04-26T04:24:27.414Z,13.53
2023-04-26T04:26:54.556Z,11.27
2023-04-26T04:29:21.619Z,11.30
2023-04-26T04:31:48.993Z,10.43
2023-04-26T04:34:17.512Z,10.33
2023-04-26T04:36:45.804Z,10.20
2023-04-26T04:39:12.906Z,12.13
2023-04-26T04:41:40.153Z,11.43
2023-04-26T04:44:07.204Z,10.93
2023-04-26T04:46:35.122Z,11.40
2023-04-26T04:49:02.177Z,11.47
2023-04-26T04:51:31.528Z,12.60
2023-04-26T04:53:58.563Z,8.57
2023-04-26T04:56:25.661Z,16.70
2023-04-26T04:58:53.188Z,14.77
2023-04-26T05:01:21.960Z,12.87
2023-04-26T05:03:52.573Z,13.80
2023-04-26T05:06:20.688Z,14.73
2023-04-26T05:08:49.159Z,10.67
2023-04-26T05:11:17.100Z,11.53
2023-04-26T05:13:44.207Z,12.60
2023-04-26T05:16:11.392Z,11.00
2023-04-26T05:18:38.812Z,10.30
2023-04-26T05:21:06.071Z,13.07
2023-04-26T05:23:33.155Z,20.70
2023-04-26T05:26:04.240Z,11.47
2023-04-26T05:28:50.707Z,10.80
2023-04-26T05:31:24.511Z,13.73
2023-04-26T05:34:05.686Z,14.23
2023-04-26T05:36:36.802Z,14.80
2023-04-26T05:39:04.330Z,15.87
2023-04-26T05:41:32.812Z,18.00
2023-04-26T05:44:00.269Z,14.67
2023-04-26T05:46:27.597Z,12.57
2023-04-26T05:48:55.605Z,20.87
2023-04-26T05:51:22.642Z,20.53
2023-04-26T05:53:50.437Z,18.47
2023-04-26T05:56:17.963Z,25.93
2023-04-26T05:58:46.351Z,17.20
2023-04-26T06:01:13.518Z,16.63
2023-04-26T06:03:40.861Z,15.93
2023-04-26T06:06:08.878Z,17.47
2023-04-26T06:08:38.841Z,18.47
2023-04-26T06:11:05.958Z,22.13
2023-04-26T06:13:33.054Z,20.77
2023-04-26T06:16:01.694Z,19.27
2023-04-26T06:18:28.744Z,16.30
2023-04-26T06:20:55.893Z,17.70
2023-04-26T06:23:23.534Z,22.43
2023-04-26T06:25:50.607Z,15.40
2023-04-26T06:28:17.658Z,15.20
2023-04-26T06:30:44.981Z,17.90
2023-04-26T06:33:13.439Z,15.43
2023-04-26T06:35:40.756Z,23.53
2023-04-26T06:38:08.637Z,20.83
2023-04-26T06:40:36.710Z,15.83
2023-04-26T06:43:03.870Z,21.10
2023-04-26T06:45:33.551Z,17.67
2023-04-26T06:48:01.554Z,14.33
2023-04-26T06:50:30.136Z,16.37
2023-04-26T06:52:57.209Z,16.93
2023-04-26T06:55:24.556Z,18.97
2023-04-26T06:57:51.655Z,18.50
2023-04-26T07:00:19.008Z,26.37
2023-04-26T07:02:46.363Z,18.37
2023-04-26T07:05:15.259Z,14.13
2023-04-26T07:07:45.077Z,16.77
2023-04-26T07:10:12.297Z,19.00
2023-04-26T07:12:39.396Z,22.80
2023-04-26T07:15:07.024Z,14.77
2023-04-26T07:17:34.118Z,17.50
2023-04-26T07:20:01.253Z,17.03
2023-04-26T07:22:28.376Z,16.67
2023-04-26T07:24:56.810Z,18.90
2023-04-26T07:27:23.886Z,12.63
2023-04-26T07:29:53.931Z,16.00
2023-04-26T07:32:21.048Z,15.40
2023-04-26T07:34:48.095Z,12.83
2023-04-26T07:37:15.170Z,13.57
2023-04-26T07:39:42.290Z,15.00
2023-04-26T07:42:10.692Z,14.10
2023-04-26T07:44:37.716Z,23.03
2023-04-26T07:47:04.747Z,12.70
2023-04-26T07:49:31.794Z,22.40
2023-04-26T07:51:58.871Z,16.93
2023-04-26T07:54:25.915Z,15.73
2023-04-26T07:56:53.073Z,14.27
2023-04-26T07:59:21.574Z,18.10
2023-04-26T08:01:48.693Z,15.43
2023-04-26T08:04:15.909Z,14.83
2023-04-26T08:06:43.171Z,16.37
2023-04-26T08:09:10.219Z,18.80
2023-04-26T08:11:37.453Z,20.37
2023-04-26T08:14:04.547Z,14.33
2023-04-26T08:16:33.048Z,9.77
2023-04-26T08:19:00.197Z,9.50
2023-04-26T08:21:27.464Z,13.70
2023-04-26T08:23:54.788Z,9.03
2023-04-26T08:26:22.119Z,6.83
2023-04-26T08:28:49.193Z,6.97
2023-04-26T08:31:17.691Z,7.17
2023-04-26T08:33:46.334Z,9.50
2023-04-26T08:36:13.377Z,9.00
2023-04-26T08:38:40.461Z,7.13
2023-04-26T08:41:09.272Z,10.87
2023-04-26T08:43:37.514Z,8.43
2023-04-26T08:46:07.310Z,16.03
2023-04-26T08:48:34.928Z,8.10
2023-04-26T08:51:03.638Z,9.27
2023-04-26T08:53:31.917Z,8.43
2023-04-26T08:55:59.213Z,9.70
2023-04-26T08:58:26.358Z,11.20
2023-04-26T09:00:53.517Z,12.87
2023-04-26T09:03:23.688Z,8.90
2023-04-26T09:05:51.089Z,11.07
2023-04-26T09:08:19.714Z,7.60
2023-04-26T09:10:46.931Z,4.63
2023-04-26T09:13:14.034Z,7.30
2023-04-26T09:15:41.172Z,9.60
2023-04-26T09:18:17.972Z,9.13
2023-04-26T09:20:45.936Z,7.63
2023-04-26T09:23:13.113Z,7.17
2023-04-26T09:25:41.533Z,7.60
2023-04-26T09:28:19.973Z,9.37
2023-04-26T09:30:47.004Z,6.67
2023-04-26T09:33:14.123Z,9.67
2023-04-26T09:35:41.941Z,7.80
2023-04-26T09:38:12.766Z,10.50
2023-04-26T09:40:43.320Z,20.90
2023-04-26T09:43:11.357Z,8.10
2023-04-26T09:45:45.216Z,10.67
2023-04-26T09:48:16.360Z,5.53
2023-04-26T09:50:43.864Z,7.50
2023-04-26T09:53:10.947Z,6.60
2023-04-26T09:55:38.086Z,10.30
2023-04-26T09:58:12.600Z,4.70
2023-04-26T10:00:42.066Z,9.93
2023-04-26T10:03:09.731Z,6.97
2023-04-26T10:05:37.447Z,4.50
2023-04-26T10:08:04.634Z,8.97
2023-04-26T10:10:31.828Z,6.37
2023-04-26T10:12:59.000Z,5.23
2023-04-26T10:15:27.990Z,11.83
2023-04-26T10:17:55.168Z,11.27
2023-04-26T10:20:22.751Z,7.07
2023-04-26T10:22:52.511Z,12.13
2023-04-26T10:25:19.619Z,7.90
2023-04-26T10:27:49.943Z,14.63
2023-04-26T10:30:17.289Z,9.37
2023-04-26T10:33:17.798Z,8.30
2023-04-26T10:36:09.107Z,6.17
2023-04-26T10:38:38.629Z,10.70
2023-04-26T10:41:24.258Z,5.50
2023-04-26T10:43:51.745Z,3.57
2023-04-26T10:46:33.829Z,6.13
2023-04-26T10:49:12.814Z,9.90
2023-04-26T10:51:39.886Z,5.50
2023-04-26T10:54:08.395Z,5.70
2023-04-26T10:56:53.777Z,6.30
2023-04-26T11:01:52.878Z,8.10
2023-04-26T11:04:20.164Z,10.37
2023-04-26T11:06:51.157Z,6.20
2023-04-26T11:09:33.146Z,7.63
2023-04-26T11:12:01.543Z,9.10
2023-04-26T11:14:28.806Z,7.47
2023-04-26T11:16:55.916Z,6.53
2023-04-26T11:19:23.439Z,6.83
2023-04-26T11:21:50.581Z,8.03
2023-04-26T11:24:17.816Z,5.30
2023-04-26T11:26:51.815Z,6.63
2023-04-26T11:29:20.644Z,5.57
2023-04-26T11:31:54.468Z,8.13
2023-04-26T11:34:22.245Z,6.30
2023-04-26T11:36:49.302Z,8.60
2023-04-26T11:39:16.406Z,4.67
2023-04-26T11:41:43.450Z,5.47
2023-04-26T11:44:11.655Z,9.70
2023-04-26T11:46:40.235Z,6.47
2023-04-26T11:49:08.428Z,9.10
2023-04-26T11:51:35.773Z,9.17
2023-04-26T11:54:02.849Z,7.07
2023-04-26T11:56:29.972Z,8.37
2023-04-26T11:58:57.201Z,7.93
2023-04-26T12:01:24.940Z,5.90
2023-04-26T12:03:54.067Z,6.13
2023-04-26T12:06:26.252Z,7.13
2023-04-26T12:08:53.696Z,7.23
2023-04-26T12:11:21.266Z,7.07
2023-04-26T12:13:48.513Z,6.17
2023-04-26T12:16:25.628Z,5.73
2023-04-26T12:18:55.614Z,8.90
2023-04-26T12:21:22.957Z,6.60
2023-04-26T12:23:50.038Z,4.70
2023-04-26T12:26:17.273Z,4.70
2023-04-26T12:28:44.744Z,13.83
2023-04-26T12:31:12.339Z,3.77
2023-04-26T12:33:39.624Z,7.33
2023-04-26T12:36:09.020Z,5.30
2023-04-26T12:38:36.191Z,11.60
2023-04-26T12:41:03.402Z,8.30
2023-04-26T12:43:30.538Z,5.53
2023-04-26T12:45:57.600Z,9.57
2023-04-26T12:48:24.768Z,10.13
2023-04-26T12:50:51.828Z,11.20
2023-04-26T12:53:20.433Z,8.53
2023-04-26T12:55:47.593Z,6.60
2023-04-26T12:58:14.957Z,8.07
2023-04-26T13:00:43.977Z,10.47
2023-04-26T13:03:11.882Z,7.50
2023-04-26T13:05:39.034Z,7.53
2023-04-26T13:08:06.190Z,4.50
2023-04-26T13:10:34.652Z,4.90
2023-04-26T13:13:01.676Z,6.30
2023-04-26T13:15:28.936Z,12.00
2023-04-26T13:17:56.498Z,6.10
2023-04-26T13:20:25.697Z,7.07
2023-04-26T13:22:54.004Z,6.60
2023-04-26T13:25:21.136Z,7.63
2023-04-26T13:27:49.598Z,5.93
2023-04-26T13:30:16.738Z,5.30
2023-04-26T13:32:43.886Z,5.50
2023-04-26T13:35:10.981Z,10.13
2023-04-26T13:37:38.221Z,9.67
2023-04-26T13:40:05.864Z,10.70
2023-04-26T13:42:32.977Z,5.60
2023-04-26T13:45:01.381Z,6.60
2023-04-26T13:47:28.455Z,5.80
2023-04-26T13:49:55.526Z,10.10
2023-04-26T13:52:22.640Z,5.50
2023-04-26T13:54:49.656Z,9.20
2023-04-26T13:57:16.724Z,5.90
2023-04-26T13:59:43.782Z,4.17
2023-04-26T14:02:12.364Z,6.40
2023-04-26T14:04:40.133Z,7.17
2023-04-26T14:07:07.857Z,6.67
2023-04-26T14:09:34.949Z,12.33
2023-04-26T14:12:08.614Z,3.70
2023-04-26T14:14:36.060Z,7.10
2023-04-26T14:17:03.116Z,7.17
2023-04-26T14:19:31.574Z,6.03
2023-04-26T14:21:58.632Z,6.10
2023-04-26T14:24:25.864Z,5.17
2023-04-26T14:26:52.958Z,4.07
2023-04-26T14:29:20.165Z,3.90
2023-04-26T14:31:47.302Z,3.77
2023-04-26T14:34:14.354Z,4.20
2023-04-26T14:36:42.738Z,5.30
2023-04-26T14:39:09.846Z,8.97
2023-04-26T14:41:36.917Z,6.77
2023-04-26T14:44:03.993Z,6.50
2023-04-26T14:46:31.070Z,5.60
2023-04-26T14:48:58.132Z,6.57
2023-04-26T14:51:25.296Z,4.40
2023-04-26T14:53:53.771Z,6.63
2023-04-26T14:56:20.801Z,6.30
2023-04-26T14:58:47.887Z,5.10
2023-04-26T15:01:15.030Z,7.20
2023-04-26T15:03:42.382Z,3.77
2023-04-26T15:06:09.541Z,4.23
2023-04-26T15:08:36.685Z,9.23
2023-04-26T15:11:05.361Z,6.00
2023-04-26T15:13:32.452Z,4.47
2023-04-26T15:16:03.334Z,5.30
2023-04-26T15:18:31.990Z,9.40
2023-04-26T15:20:59.289Z,9.10
2023-04-26T15:23:26.478Z,5.07
2023-04-26T15:25:53.608Z,4.60
2023-04-26T15:28:22.142Z,6.90
2023-04-26T15:30:49.185Z,4.70
2023-04-26T15:33:17.306Z,5.67
2023-04-26T15:35:44.551Z,4.43
2023-04-26T15:38:11.682Z,10.63
2023-04-26T15:40:38.728Z,7.00
2023-04-26T15:43:05.821Z,3.60
2023-04-26T15:45:35.355Z,5.00
2023-04-26T15:48:02.479Z,9.83
2023-04-26T15:50:29.710Z,5.30
2023-04-26T15:52:56.816Z,6.13
2023-04-26T15:55:23.894Z,8.30
2023-04-26T15:57:50.987Z,5.70
2023-04-26T16:00:18.370Z,6.03
2023-04-26T16:02:46.926Z,7.83
2023-04-26T16:05:14.190Z,5.60
2023-04-26T16:07:41.416Z,5.93
2023-04-26T16:10:09.284Z,8.13
2023-04-26T16:12:36.357Z,8.73
2023-04-26T16:15:03.412Z,5.90
2023-04-26T16:17:30.513Z,6.30
2023-04-26T16:19:59.015Z,5.73
2023-04-26T16:22:26.087Z,5.43
2023-04-26T16:24:53.163Z,7.23
2023-04-26T16:27:20.318Z,6.17
2023-04-26T16:29:47.420Z,4.30
2023-04-26T16:32:14.554Z,6.87
2023-04-26T16:34:41.617Z,5.17
2023-04-26T16:37:10.061Z,4.60
2023-04-26T16:39:37.093Z,7.60
2023-04-26T16:42:04.253Z,6.93
2023-04-26T16:44:31.358Z,5.80
2023-04-26T16:46:59.349Z,4.93
2023-04-26T16:49:26.460Z,6.47
2023-04-26T16:51:53.529Z,4.60
2023-04-26T16:54:21.936Z,5.77
2023-04-26T16:56:48.955Z,8.60
2023-04-26T16:59:15.997Z,10.10
2023-04-26T17:01:43.136Z,10.40
2023-04-26T17:04:12.948Z,8.30
2023-04-26T17:06:41.374Z,6.20
2023-04-26T17:09:08.448Z,5.27
2023-04-26T17:11:36.826Z,5.93
2023-04-26T17:14:03.894Z,7.60
2023-04-26T17:16:31.103Z,6.70
2023-04-26T17:18:58.295Z,10.70
2023-04-26T17:21:25.574Z,8.00
2023-04-26T17:23:52.695Z,5.53
2023-04-26T17:26:19.784Z,5.87
2023-04-26T17:28:48.190Z,5.43
2023-04-26T17:31:15.394Z,8.20
2023-04-26T17:33:42.431Z,4.47
2023-04-26T17:36:09.515Z,6.03
2023-04-26T17:38:36.604Z,8.43
2023-04-26T17:41:03.818Z,4.83
2023-04-26T17:43:31.015Z,11.33
2023-04-26T17:45:59.457Z,6.17
2023-04-26T17:48:26.524Z,10.73
2023-04-26T17:50:53.606Z,7.57
2023-04-26T17:53:20.836Z,5.93
2023-04-26T17:55:48.081Z,5.93
2023-04-26T17:58:15.150Z,7.07
2023-04-26T18:00:42.243Z,5.43
2023-04-26T18:03:10.863Z,8.07
2023-04-26T18:05:38.103Z,5.83
2023-04-26T18:08:05.213Z,8.67
2023-04-26T18:10:32.315Z,6.40
2023-04-26T18:12:59.515Z,4.70
2023-04-26T18:15:26.711Z,7.93
2023-04-26T18:17:53.957Z,5.13
2023-04-26T18:20:22.528Z,9.07
2023-04-26T18:22:49.592Z,11.40
2023-04-26T18:25:16.673Z,6.17
2023-04-26T18:27:43.751Z,10.43
2023-04-26T18:30:11.210Z,6.30
2023-04-26T18:32:38.300Z,7.03
2023-04-26T18:35:05.780Z,5.33
2023-04-26T18:37:34.159Z,5.17
2023-04-26T18:40:01.283Z,7.30
2023-04-26T18:42:28.398Z,11.23
2023-04-26T18:44:55.463Z,5.20
2023-04-26T18:47:22.536Z,7.93
2023-04-26T18:49:49.629Z,8.13
2023-04-26T18:52:16.752Z,6.20
2023-04-26T18:54:45.099Z,4.90
2023-04-26T18:57:12.160Z,8.00
2023-04-26T18:59:39.211Z,5.70
2023-04-26T19:02:06.406Z,8.83
2023-04-26T19:04:33.625Z,5.33
2023-04-26T19:07:00.804Z,5.00
2023-04-26T19:09:27.916Z,8.23
2023-04-26T19:11:56.342Z,7.10
2023-04-26T19:14:23.480Z,6.33
2023-04-26T19:16:50.560Z,7.83
2023-04-26T19:19:17.665Z,7.00
2023-04-26T19:21:44.712Z,6.40
2023-04-26T19:24:11.805Z,5.90
2023-04-26T19:26:38.882Z,11.10
2023-04-26T19:29:07.358Z,8.43
2023-04-26T19:31:34.466Z,3.90
2023-04-26T19:34:01.530Z,7.67
2023-04-26T19:36:28.596Z,4.87
2023-04-26T19:38:55.658Z,7.93
2023-04-26T19:41:22.683Z,7.67
2023-04-26T19:43:49.733Z,4.40
2023-04-26T19:46:18.327Z,9.93
2023-04-26T19:48:45.442Z,6.40
2023-04-26T19:51:15.273Z,7.70
2023-04-26T19:53:42.312Z,4.57
2023-04-26T19:56:09.389Z,5.20
2023-04-26T19:58:36.440Z,10.93
2023-04-26T20:01:03.709Z,8.40
2023-04-26T20:03:32.277Z,8.93
2023-04-26T20:05:59.444Z,3.40
2023-04-26T20:08:26.532Z,7.93
2023-04-26T20:10:53.639Z,4.70
2023-04-26T20:13:20.709Z,9.87
2023-04-26T20:15:47.790Z,4.67
2023-04-26T20:18:14.895Z,7.57
2023-04-26T20:20:43.295Z,6.43
2023-04-26T20:23:10.384Z,9.90
2023-04-26T20:25:37.447Z,8.40
2023-04-26T20:28:04.722Z,11.13
2023-04-26T20:30:31.850Z,6.63
2023-04-26T20:32:58.959Z,8.47
2023-04-26T20:35:25.991Z,6.70
2023-04-26T20:37:54.391Z,5.33
2023-04-26T20:40:21.447Z,10.17
2023-04-26T20:42:48.529Z,10.13
2023-04-26T20:45:15.672Z,13.30
2023-04-26T20:47:42.832Z,7.57
2023-04-26T20:50:10.410Z,8.30
2023-04-26T20:52:37.586Z,8.07
2023-04-26T20:55:06.626Z,8.27
2023-04-26T20:57:33.717Z,7.80
2023-04-26T21:00:00.783Z,9.43
2023-04-26T21:02:27.962Z,9.03
2023-04-26T21:04:55.648Z,8.27
2023-04-26T21:07:22.816Z,5.13
2023-04-26T21:09:49.851Z,4.83
2023-04-26T21:12:18.292Z,16.27
2023-04-26T21:14:45.383Z,6.70
2023-04-26T21:17:12.488Z,9.80
2023-04-26T21:19:39.579Z,5.77
2023-04-26T21:22:06.654Z,6.57
2023-04-26T21:24:33.719Z,8.30
2023-04-26T21:27:00.748Z,5.33
2023-04-26T21:29:29.110Z,7.67
2023-04-26T21:31:56.777Z,9.20
2023-04-26T21:34:23.860Z,5.93
2023-04-26T21:36:50.878Z,8.47
2023-04-26T21:39:18.219Z,6.23
2023-04-26T21:41:45.250Z,12.03
2023-04-26T21:44:12.280Z,9.17
2023-04-26T21:46:40.764Z,5.83
2023-04-26T21:49:08.274Z,6.40
2023-04-26T21:51:35.545Z,10.13
2023-04-26T21:54:02.596Z,6.50
2023-04-26T21:56:29.627Z,8.10
2023-04-26T21:58:56.621Z,5.40
2023-04-26T22:01:23.694Z,12.30
2023-04-26T22:03:52.243Z,8.20
2023-04-26T22:06:19.361Z,12.20
2023-04-26T22:08:46.442Z,10.03
2023-04-26T22:11:13.445Z,14.63
2023-04-26T22:13:40.474Z,8.47
2023-04-26T22:16:07.782Z,5.93
2023-04-26T22:18:34.891Z,11.23
2023-04-26T22:21:03.339Z,11.87
2023-04-26T22:23:30.453Z,8.20
2023-04-26T22:25:57.528Z,10.90
2023-04-26T22:28:24.598Z,8.60
2023-04-26T22:30:51.657Z,8.70
2023-04-26T22:33:18.722Z,6.67
2023-04-26T22:35:45.781Z,6.30
2023-04-26T22:38:14.238Z,11.53
2023-04-26T22:40:41.360Z,7.13
2023-04-26T22:43:08.522Z,7.33
2023-04-26T22:45:35.631Z,7.37
2023-04-26T22:48:02.787Z,9.87
2023-04-26T22:50:29.880Z,10.10
2023-04-26T22:52:56.914Z,7.27
2023-04-26T22:55:25.613Z,7.93
2023-04-26T22:57:52.710Z,12.50
2023-04-26T23:00:19.820Z,15.60
2023-04-26T23:02:46.900Z,11.47
2023-04-26T23:05:14.039Z,10.63
2023-04-26T23:07:41.323Z,9.30
2023-04-26T23:10:08.851Z,13.80
2023-04-26T23:12:37.206Z,11.77
2023-04-26T23:15:04.552Z,11.60
2023-04-26T23:17:31.594Z,12.50
2023-04-26T23:19:58.667Z,12.40
2023-04-26T23:22:25.730Z,8.33
2023-04-26T23:24:52.877Z,8.10
2023-04-26T23:27:19.970Z,8.13
2023-04-26T23:29:50.172Z,11.23
2023-04-26T23:32:17.228Z,11.07
2023-04-26T23:34:44.271Z,11.47
2023-04-26T23:37:11.330Z,7.23
2023-04-26T23:39:38.513Z,10.87
2023-04-26T23:42:05.684Z,11.20
2023-04-26T23:44:32.726Z,8.43
2023-04-26T23:47:01.231Z,12.73
2023-04-26T23:49:28.362Z,12.00
2023-04-26T23:51:55.511Z,11.13
2023-04-26T23:54:22.922Z,12.40
2023-04-26T23:56:49.962Z,8.53
2023-04-26T23:59:17.077Z,10.23
